Time;durP1;ratioP1;P1;durP2;ratioP2;P2;SDS_P1;SDS_P2;PMS_P1;PMS_P2;Temp;Humidity;BMP_temperature;BMP_pressure;BME280_temperature;BME280_humidity;BME280_pressure;Samples;Min_cycle;Max_cycle;Signal;HPM_P1;HPM_P2
2022/01/05 00:02:09;;;;;;;2.70;1.08;;;;;;;20.48;39.73;99759.94;5051596;28;20820;-64
2022/01/05 00:04:35;;;;;;;3.38;1.42;;;;;;;20.37;39.98;99750.00;5054848;28;20048;-64
2022/01/05 00:07:03;;;;;;;4.72;1.50;;;;;;;20.42;39.84;99752.84;5055147;28;20082;-64
2022/01/05 00:09:28;;;;;;;3.33;1.52;;;;;;;20.37;40.08;99750.00;5022926;28;20039;-64
2022/01/05 00:11:55;;;;;;;5.68;1.70;;;;;;;20.36;39.79;99753.66;5054609;28;20036;-65
2022/01/05 00:14:20;;;;;;;2.50;1.05;;;;;;;20.33;40.04;99754.06;5038609;28;20036;-65
2022/01/05 00:16:46;;;;;;;1.13;0.95;;;;;;;20.30;39.97;99749.22;5054041;28;20040;-64
2022/01/05 00:19:11;;;;;;;1.70;0.98;;;;;;;20.26;40.03;99758.56;5051659;28;20037;-64
2022/01/05 00:21:38;;;;;;;3.80;1.38;;;;;;;20.27;40.03;99743.50;5051956;28;20498;-64
2022/01/05 00:24:03;;;;;;;1.45;0.90;;;;;;;20.25;40.06;99745.53;5053968;28;20410;-64
2022/01/05 00:26:29;;;;;;;1.85;1.13;;;;;;;20.11;40.49;99755.38;5053173;28;20048;-64
2022/01/05 00:28:55;;;;;;;2.10;0.98;;;;;;;20.07;40.38;99751.50;5053269;28;20059;-65
2022/01/05 00:31:21;;;;;;;1.63;1.05;;;;;;;20.04;40.36;99741.34;5032706;28;20107;-64
2022/01/05 00:33:46;;;;;;;2.05;0.98;;;;;;;20.06;40.30;99740.09;5053678;28;20052;-64
2022/01/05 00:36:12;;;;;;;1.42;1.00;;;;;;;19.97;40.38;99737.91;5053418;28;20059;-65
2022/01/05 00:38:37;;;;;;;2.17;0.90;;;;;;;19.91;40.54;99745.63;5050118;28;20045;-64
2022/01/05 00:41:04;;;;;;;2.13;1.17;;;;;;;19.82;40.49;99720.44;5051165;28;20029;-64
2022/01/05 00:43:30;;;;;;;1.77;1.20;;;;;;;19.86;40.62;99716.38;5054130;28;20211;-64
2022/01/05 00:45:56;;;;;;;1.83;0.98;;;;;;;19.87;40.57;99730.41;5052675;28;20028;-64
2022/01/05 00:48:22;;;;;;;1.70;0.98;;;;;;;19.82;40.73;99738.13;5051504;28;20983;-64
2022/01/05 00:50:47;;;;;;;3.05;0.98;;;;;;;19.77;40.72;99732.66;5052965;28;20032;-64
2022/01/05 00:53:13;;;;;;;2.85;1.42;;;;;;;19.75;40.81;99738.16;5050674;28;20029;-64
2022/01/05 00:55:39;;;;;;;1.73;0.90;;;;;;;19.69;41.04;99728.38;5053491;28;20036;-64
2022/01/05 00:58:04;;;;;;;1.63;0.85;;;;;;;19.68;41.01;99732.03;5051515;28;20074;-64
2022/01/05 01:00:30;;;;;;;2.15;1.17;;;;;;;19.69;40.91;99736.31;5051115;28;20124;-64
2022/01/05 01:02:56;;;;;;;2.22;0.90;;;;;;;19.74;40.77;99735.69;5052318;28;20041;-64
2022/01/05 01:05:21;;;;;;;3.50;1.15;;;;;;;19.71;40.84;99731.63;5050601;28;20068;-65
2022/01/05 01:07:47;;;;;;;1.88;1.10;;;;;;;19.59;40.90;99730.66;5054177;28;20754;-64
2022/01/05 01:10:14;;;;;;;1.60;1.00;;;;;;;19.60;40.96;99742.84;5053901;28;20621;-64
2022/01/05 01:12:40;;;;;;;3.03;1.05;;;;;;;19.66;40.95;99733.28;5033035;28;20093;-64
2022/01/05 01:15:08;;;;;;;2.88;0.98;;;;;;;19.61;40.83;99732.06;5052612;28;20040;-65
2022/01/05 01:17:34;;;;;;;3.65;1.13;;;;;;;19.57;40.87;99722.94;5052806;28;20247;-64
2022/01/05 01:20:00;;;;;;;3.40;1.17;;;;;;;19.65;40.87;99731.66;5049832;28;20036;-64
2022/01/05 01:22:28;;;;;;;2.17;1.02;;;;;;;19.58;40.82;99729.84;5050090;28;20488;-64
2022/01/05 01:24:54;;;;;;;2.10;0.93;;;;;;;19.58;40.89;99724.56;5052243;28;20044;-64
2022/01/05 01:27:19;;;;;;;2.80;1.05;;;;;;;19.56;40.96;99720.47;5053132;28;20101;-64
2022/01/05 01:29:45;;;;;;;1.60;1.20;;;;;;;19.59;40.87;99728.00;5053677;28;20048;-64
2022/01/05 01:32:10;;;;;;;3.53;1.20;;;;;;;19.65;40.75;99713.97;5050468;28;20063;-64
2022/01/05 01:34:36;;;;;;;1.30;0.98;;;;;;;19.51;41.00;99717.59;5051462;28;20067;-64
2022/01/05 01:37:01;;;;;;;3.08;1.20;;;;;;;19.45;41.19;99721.06;5053607;28;20056;-64
2022/01/05 01:39:27;;;;;;;2.75;1.63;;;;;;;19.46;40.86;99707.66;5048202;28;20040;-65
2022/01/05 01:41:52;;;;;;;1.73;0.80;;;;;;;19.50;40.99;99711.50;5051152;28;20032;-64
2022/01/05 01:44:18;;;;;;;1.52;1.00;;;;;;;19.49;40.96;99711.72;5051310;28;20032;-64
2022/01/05 01:46:44;;;;;;;2.20;1.20;;;;;;;19.54;40.93;99714.59;5051932;28;20055;-64
2022/01/05 01:49:09;;;;;;;2.22;1.27;;;;;;;19.40;41.13;99705.84;5052794;28;20048;-64
2022/01/05 01:51:35;;;;;;;2.90;1.40;;;;;;;19.50;40.91;99716.78;5051219;28;20037;-64
2022/01/05 01:54:03;;;;;;;2.85;1.33;;;;;;;19.47;40.98;99713.75;5052102;28;20414;-64
2022/01/05 01:56:33;;;;;;;1.35;0.80;;;;;;;19.26;40.84;99675.19;5034160;28;20787;-64
2022/01/05 01:58:59;;;;;;;;;;;;;;;19.37;41.06;99708.06;5052850;28;20086;-64
2022/01/05 02:01:24;;;;;;;4.28;1.20;;;;;;;19.35;41.28;99708.25;5050264;28;19929;-64
2022/01/05 02:03:50;;;;;;;2.67;1.35;;;;;;;19.21;41.04;99674.97;5033653;28;20113;-64
2022/01/05 02:06:15;;;;;;;3.03;1.40;;;;;;;19.41;41.01;99704.03;5050620;28;20044;-65
2022/01/05 02:08:41;;;;;;;3.08;1.20;;;;;;;19.33;41.26;99710.28;5048431;28;20267;-64
2022/01/05 02:11:09;;;;;;;2.45;1.05;;;;;;;19.35;41.18;99712.72;5053073;28;20375;-64
2022/01/05 02:13:34;;;;;;;2.35;1.50;;;;;;;19.33;41.10;99711.09;5049983;28;20636;-64
2022/01/05 02:16:01;;;;;;;2.78;1.20;;;;;;;19.35;40.82;99696.91;5034707;28;20036;-64
2022/01/05 02:21:06;;;;;;;2.00;1.00;;;;;;;19.25;41.17;99705.22;5053769;28;20044;-64
2022/01/05 02:23:33;;;;;;;2.05;0.93;;;;;;;18.99;41.05;99663.78;5050443;28;20044;-64
2022/01/05 02:25:59;;;;;;;2.00;1.30;;;;;;;19.25;41.08;99713.16;5053041;28;20398;-64
2022/01/05 02:28:25;;;;;;;1.60;1.15;;;;;;;19.29;41.13;99706.44;5050301;28;20052;-64
2022/01/05 02:30:52;;;;;;;1.67;0.90;;;;;;;19.31;40.99;99704.41;5053435;28;20036;-64
2022/01/05 02:33:21;;;;;;;2.30;1.20;;;;;;;19.33;40.91;99705.03;5050823;28;20055;-64
2022/01/05 02:35:47;;;;;;;2.58;1.65;;;;;;;19.22;41.06;99703.81;5050185;28;20054;-64
2022/01/05 02:38:17;;;;;;;1.20;0.90;;;;;;;19.28;41.27;99707.47;5050572;28;20036;-64
2022/01/05 02:40:43;;;;;;;2.53;0.90;;;;;;;19.21;41.14;99693.44;5052262;28;20029;-64
2022/01/05 02:43:08;;;;;;;2.20;0.70;;;;;;;19.22;41.11;99697.72;5052006;28;20556;-64
2022/01/05 02:45:34;;;;;;;1.65;0.93;;;;;;;19.19;41.11;99691.00;5050681;28;20076;-64
2022/01/05 02:47:59;;;;;;;2.80;1.27;;;;;;;19.21;41.18;99681.06;5050666;28;20045;-64
2022/01/05 02:50:25;;;;;;;3.22;0.85;;;;;;;19.28;41.06;99692.44;5051154;28;20062;-64
2022/01/05 02:52:50;;;;;;;3.35;0.93;;;;;;;19.27;41.04;99685.53;5047488;28;20078;-64
2022/01/05 02:55:16;;;;;;;1.65;0.95;;;;;;;19.20;41.06;99689.16;5050484;28;20509;-65
2022/01/05 02:57:41;;;;;;;2.65;0.93;;;;;;;19.17;41.13;99690.38;5050624;28;20040;-64
2022/01/05 03:00:10;;;;;;;2.03;1.30;;;;;;;19.11;41.31;99680.66;5049930;28;20056;-64
2022/01/05 03:02:35;;;;;;;2.60;0.95;;;;;;;19.15;41.25;99678.41;5052210;28;20049;-64
2022/01/05 03:05:02;;;;;;;3.72;1.20;;;;;;;19.08;41.24;99674.97;5050925;28;20113;-64
2022/01/05 03:07:27;;;;;;;3.42;1.40;;;;;;;19.14;41.25;99684.72;5050089;28;20049;-64
2022/01/05 03:09:53;;;;;;;2.60;1.30;;;;;;;19.15;41.13;99700.34;5051552;28;20044;-64
2022/01/05 03:12:18;;;;;;;2.90;1.17;;;;;;;19.14;41.16;99692.63;5032374;28;20037;-65
2022/01/05 03:14:44;;;;;;;4.18;0.90;;;;;;;19.12;40.95;99692.84;5050857;28;20105;-64
2022/01/05 03:17:10;;;;;;;2.67;1.00;;;;;;;19.11;41.22;99690.41;5052113;28;20430;-64
2022/01/05 03:19:35;;;;;;;3.95;1.40;;;;;;;19.07;41.17;99697.91;5054346;28;20449;-64
2022/01/05 03:22:01;;;;;;;2.40;1.27;;;;;;;19.13;41.00;99694.47;5054307;28;20063;-64
2022/01/05 03:24:27;;;;;;;1.80;0.88;;;;;;;19.12;40.98;99697.31;5051445;28;20053;-64
2022/01/05 03:26:52;;;;;;;2.35;1.05;;;;;;;19.06;41.17;99696.28;5053897;28;20773;-64
2022/01/05 03:29:18;;;;;;;1.95;1.10;;;;;;;18.95;41.35;99696.88;5057145;28;20032;-64
2022/01/05 03:31:43;;;;;;;2.35;0.90;;;;;;;19.02;41.32;99700.31;5054265;28;20518;-64
2022/01/05 03:34:16;;;;;;;4.47;1.40;;;;;;;19.07;40.83;99705.03;5057455;28;20028;-64
2022/01/05 03:36:42;;;;;;;3.75;1.30;;;;;;;19.06;41.14;99700.75;5055136;28;20489;-64
2022/01/05 03:39:07;;;;;;;2.45;1.13;;;;;;;18.99;41.26;99691.00;5054556;28;20045;-64
2022/01/05 03:41:33;;;;;;;4.13;1.20;;;;;;;19.03;41.02;99699.34;5054946;28;20040;-64
2022/01/05 03:43:59;;;;;;;4.32;1.30;;;;;;;19.04;41.00;99693.03;5057407;28;20033;-64
2022/01/05 03:46:24;;;;;;;3.15;1.35;;;;;;;18.99;41.21;99692.81;5055025;28;20049;-64
2022/01/05 03:48:50;;;;;;;2.45;1.55;;;;;;;18.92;41.37;99695.47;5053246;28;20040;-64
2022/01/05 03:51:15;;;;;;;2.67;1.20;;;;;;;19.02;41.14;99695.03;5052773;28;20032;-65
2022/01/05 03:53:41;;;;;;;1.83;0.90;;;;;;;18.99;41.24;99695.44;5055585;28;20048;-64
2022/01/05 03:56:06;;;;;;;2.78;1.10;;;;;;;18.93;41.32;99694.44;5035610;28;20044;-64
2022/01/05 03:58:32;;;;;;;1.25;0.98;;;;;;;18.90;41.32;99688.75;5055265;28;20036;-64
2022/01/05 04:00:57;;;;;;;2.25;1.25;;;;;;;18.93;41.20;99693.63;5055338;28;20528;-64
2022/01/05 04:03:23;;;;;;;2.83;1.33;;;;;;;18.88;41.42;99694.25;5053366;28;20039;-64
2022/01/05 04:05:48;;;;;;;2.35;1.50;;;;;;;18.85;41.29;99691.16;5051281;28;20052;-64
2022/01/05 04:08:14;;;;;;;2.05;0.95;;;;;;;18.84;41.26;99694.81;5054028;28;20044;-64
2022/01/05 04:10:41;;;;;;;5.78;1.15;;;;;;;18.92;41.08;99698.09;5054228;28;20391;-64
2022/01/05 04:13:06;;;;;;;3.35;1.38;;;;;;;18.70;41.29;99665.81;5054865;28;20509;-66
2022/01/05 04:15:32;;;;;;;2.55;1.08;;;;;;;18.95;41.20;99699.50;5035070;28;20036;-65
2022/01/05 04:17:58;;;;;;;3.95;1.48;;;;;;;19.00;40.85;99691.81;5054374;28;20036;-64
2022/01/05 04:20:24;;;;;;;2.78;1.27;;;;;;;19.16;40.54;99685.31;5054995;28;20063;-64
2022/01/05 04:22:49;;;;;;;3.70;1.23;;;;;;;19.27;40.39;99685.53;5034895;28;20050;-64
2022/01/05 04:25:15;;;;;;;1.88;1.30;;;;;;;19.43;40.07;99678.22;5053508;28;20394;-64
2022/01/05 04:27:41;;;;;;;3.00;1.00;;;;;;;19.42;40.23;99687.97;5052822;28;20648;-65
2022/01/05 04:30:09;;;;;;;2.35;0.80;;;;;;;19.32;40.42;99675.16;5054356;28;20036;-64
2022/01/05 04:32:35;;;;;;;2.17;1.10;;;;;;;19.21;40.33;99654.69;5053291;28;20516;-64
2022/01/05 04:35:02;;;;;;;2.67;1.30;;;;;;;19.40;40.55;99682.09;5054648;28;20040;-64
2022/01/05 04:37:27;;;;;;;1.67;1.08;;;;;;;19.63;40.43;99681.69;5054137;28;20555;-64
2022/01/05 04:39:53;;;;;;;2.53;1.20;;;;;;;19.86;39.83;99673.28;5055319;28;20048;-64
2022/01/05 04:42:19;;;;;;;2.30;1.15;;;;;;;19.85;39.88;99663.75;5056049;28;20421;-64
2022/01/05 04:44:44;;;;;;;2.40;1.08;;;;;;;19.91;39.72;99658.44;5053869;28;20048;-64
2022/01/05 04:47:12;;;;;;;1.20;0.80;;;;;;;20.17;39.60;99670.75;5055156;28;20894;-64
2022/01/05 04:49:38;;;;;;;2.53;1.08;;;;;;;20.16;39.48;99658.56;5052945;28;20525;-64
2022/01/05 04:52:04;;;;;;;2.20;1.15;;;;;;;20.27;39.49;99665.00;5054547;28;20044;-64
2022/01/05 04:54:29;;;;;;;3.05;1.35;;;;;;;20.22;39.36;99649.78;5054227;28;20102;-64
2022/01/05 04:56:55;;;;;;;4.38;1.17;;;;;;;20.29;39.65;99667.44;5054042;28;20051;-64
2022/01/05 04:59:20;;;;;;;2.35;1.27;;;;;;;20.36;39.58;99671.69;5054951;28;20032;-64
2022/01/05 05:01:46;;;;;;;4.05;1.52;;;;;;;20.45;39.31;99673.09;5052695;28;20487;-65
2022/01/05 05:04:12;;;;;;;3.10;1.05;;;;;;;20.44;39.41;99671.47;5035901;28;20068;-64
2022/01/05 05:06:37;;;;;;;4.28;1.30;;;;;;;20.54;39.33;99672.84;5055925;28;20037;-64
2022/01/05 05:09:03;;;;;;;1.58;0.80;;;;;;;20.54;39.28;99670.22;5054025;28;20041;-65
2022/01/05 05:11:29;;;;;;;3.50;1.38;;;;;;;20.44;39.52;99671.47;5053523;28;20124;-64
2022/01/05 05:13:54;;;;;;;2.33;1.17;;;;;;;20.51;39.32;99666.97;5053707;28;20573;-64
2022/01/05 05:16:20;;;;;;;2.35;1.00;;;;;;;20.64;39.11;99666.06;5037824;28;20029;-64
2022/01/05 05:18:45;;;;;;;3.35;1.20;;;;;;;20.71;39.07;99660.75;5055974;28;20499;-64
2022/01/05 05:21:11;;;;;;;3.83;1.25;;;;;;;20.63;39.19;99668.91;5052873;28;20487;-64
2022/01/05 05:23:36;;;;;;;2.55;1.40;;;;;;;20.54;39.09;99630.53;5051893;28;20231;-64
2022/01/05 05:26:02;;;;;;;2.38;1.33;;;;;;;20.71;39.02;99663.41;5051303;28;20041;-64
2022/01/05 05:28:27;;;;;;;1.90;0.90;;;;;;;20.73;38.99;99653.41;5053146;28;20063;-64
2022/01/05 05:30:53;;;;;;;2.70;1.20;;;;;;;20.58;39.30;99643.13;5035958;28;20059;-64
2022/01/05 05:33:18;;;;;;;2.67;1.20;;;;;;;20.61;39.31;99655.09;5034938;28;20033;-64
2022/01/05 05:35:44;;;;;;;2.80;1.23;;;;;;;20.67;39.31;99648.97;5054395;28;20025;-64
2022/01/05 05:38:11;;;;;;;2.78;1.23;;;;;;;20.61;39.37;99647.16;5052806;28;20052;-64
2022/01/05 05:40:37;;;;;;;2.65;0.80;;;;;;;20.75;39.15;99660.09;5053826;28;20043;-64
2022/01/05 05:43:03;;;;;;;1.83;0.95;;;;;;;20.77;39.12;99658.03;5052372;28;20432;-64
2022/01/05 05:45:29;;;;;;;2.67;1.00;;;;;;;20.81;39.01;99651.28;5053528;28;20084;-64
2022/01/05 05:47:54;;;;;;;1.90;0.77;;;;;;;20.77;38.87;99658.03;5053832;28;20036;-64
2022/01/05 05:50:20;;;;;;;1.85;0.88;;;;;;;20.78;38.94;99646.44;5035174;28;20059;-64
2022/01/05 05:52:45;;;;;;;3.08;1.35;;;;;;;20.73;38.84;99651.56;5055905;28;20040;-64
2022/01/05 05:55:11;;;;;;;2.95;1.38;;;;;;;20.77;38.88;99641.38;5037369;28;20040;-64
2022/01/05 05:57:36;;;;;;;2.33;0.75;;;;;;;20.60;39.00;99613.81;5052714;28;20039;-64
2022/01/05 06:00:04;;;;;;;2.65;0.98;;;;;;;20.86;38.76;99647.22;5052745;28;20036;-64
2022/01/05 06:02:31;;;;;;;2.85;1.20;;;;;;;20.88;38.93;99650.47;5034935;28;20438;-64
2022/01/05 06:04:57;;;;;;;2.40;1.33;;;;;;;20.77;38.96;99641.38;5054319;28;20051;-64
2022/01/05 06:07:22;;;;;;;2.50;1.08;;;;;;;20.95;38.63;99641.44;5050337;28;20056;-64
2022/01/05 06:09:48;;;;;;;2.50;1.35;;;;;;;21.00;38.64;99646.06;5054804;28;20048;-64
2022/01/05 06:12:13;;;;;;;1.13;0.88;;;;;;;21.05;38.33;99648.91;5055019;28;20040;-65
2022/01/05 06:14:39;;;;;;;3.38;1.27;;;;;;;20.84;38.85;99631.56;5035073;28;20082;-64
2022/01/05 06:17:04;;;;;;;2.65;1.17;;;;;;;21.13;38.37;99659.22;5052427;28;20442;-64
2022/01/05 06:19:30;;;;;;;2.65;0.90;;;;;;;21.09;38.33;99666.78;5052065;28;20047;-65
2022/01/05 06:21:56;;;;;;;1.80;0.95;;;;;;;21.08;38.57;99651.94;5053148;28;20025;-64
2022/01/05 06:24:21;;;;;;;2.30;0.98;;;;;;;20.98;38.61;99640.19;5053530;28;20070;-65
2022/01/05 06:26:47;;;;;;;1.30;0.68;;;;;;;21.09;38.51;99648.25;5052027;28;20052;-65
2022/01/05 06:29:15;;;;;;;2.75;0.98;;;;;;;21.10;38.43;99641.13;5053698;28;20067;-64
2022/01/05 06:31:41;;;;;;;2.67;0.95;;;;;;;21.06;38.59;99643.38;5038835;28;20029;-64
2022/01/05 06:34:07;;;;;;;3.05;1.58;;;;;;;21.02;38.77;99646.69;5047329;28;20048;-64
2022/01/05 06:36:32;;;;;;;4.55;1.25;;;;;;;20.78;38.76;99608.59;5034486;28;20063;-64
2022/01/05 06:38:58;;;;;;;2.65;1.13;;;;;;;21.07;38.73;99657.44;5053569;28;20040;-64
2022/01/05 06:41:23;;;;;;;4.50;1.52;;;;;;;20.98;38.54;99638.34;5051668;28;20033;-64
2022/01/05 06:43:49;;;;;;;2.33;1.10;;;;;;;21.07;38.58;99644.19;5048676;28;20718;-64
2022/01/05 06:46:14;;;;;;;2.22;1.13;;;;;;;20.91;38.78;99644.72;5054168;28;20043;-64
2022/01/05 06:48:40;;;;;;;2.67;0.88;;;;;;;21.08;38.57;99640.53;5051988;28;20036;-65
2022/01/05 06:51:06;;;;;;;3.83;1.40;;;;;;;21.07;38.46;99641.56;5052258;28;20064;-64
2022/01/05 06:53:31;;;;;;;4.05;1.35;;;;;;;20.94;38.80;99653.03;5055752;28;20028;-64
2022/01/05 06:55:57;;;;;;;4.25;1.20;;;;;;;20.84;38.91;99636.84;5055775;28;20044;-64
2022/01/05 06:58:22;;;;;;;2.22;1.00;;;;;;;20.79;39.13;99639.31;5054621;28;20143;-64
2022/01/05 07:00:48;;;;;;;3.17;1.17;;;;;;;20.81;38.97;99651.28;5034002;28;20560;-64
2022/01/05 07:03:13;;;;;;;4.18;1.30;;;;;;;20.78;38.91;99630.56;5053200;28;20040;-64
2022/01/05 07:05:39;;;;;;;3.90;0.88;;;;;;;20.95;38.59;99640.63;5054312;28;20529;-64
2022/01/05 07:08:05;;;;;;;3.90;0.98;;;;;;;21.08;38.47;99643.19;5056079;28;20343;-64
2022/01/05 07:10:31;;;;;;;1.83;1.02;;;;;;;21.15;38.08;99646.56;5054220;28;20041;-64
2022/01/05 07:12:57;;;;;;;2.83;1.10;;;;;;;21.10;38.32;99649.06;5054941;28;20778;-64
2022/01/05 07:15:23;;;;;;;3.55;1.20;;;;;;;21.11;38.38;99648.84;5052918;28;20418;-64
2022/01/05 07:17:49;;;;;;;2.78;1.38;;;;;;;21.01;38.65;99642.44;5055750;28;20063;-65
2022/01/05 07:20:16;;;;;;;3.45;1.02;;;;;;;21.01;38.60;99639.78;5054644;28;20534;-64
2022/01/05 07:22:43;;;;;;;2.10;1.30;;;;;;;21.08;38.44;99659.88;5055203;28;20158;-64
2022/01/05 07:25:09;;;;;;;2.67;1.08;;;;;;;21.07;38.43;99636.25;5056131;28;20509;-65
2022/01/05 07:27:35;;;;;;;4.68;1.65;;;;;;;21.19;38.23;99652.25;5057119;28;20443;-64
2022/01/05 07:30:01;;;;;;;3.00;1.25;;;;;;;20.78;38.54;99606.75;5054647;28;20051;-64
2022/01/05 07:32:28;;;;;;;1.17;0.77;;;;;;;21.22;38.33;99651.81;5056158;28;20326;-64
2022/01/05 07:34:54;;;;;;;4.45;1.42;;;;;;;21.00;38.40;99628.34;5054333;28;20058;-63
2022/01/05 07:37:20;;;;;;;5.28;1.20;;;;;;;21.20;38.50;99651.22;5041365;28;20064;-63
2022/01/05 07:39:45;;;;;;;3.40;1.10;;;;;;;21.23;38.28;99659.53;5056509;28;20075;-63
2022/01/05 07:42:11;;;;;;;3.97;1.17;;;;;;;21.14;38.40;99660.81;5054873;28;20037;-63
2022/01/05 07:44:37;;;;;;;3.15;1.27;;;;;;;21.00;38.81;99661.94;5055751;28;20040;-63
2022/01/05 07:47:03;;;;;;;1.40;0.75;;;;;;;21.03;38.56;99666.84;5058411;28;20433;-63
2022/01/05 07:49:29;;;;;;;3.42;1.73;;;;;;;21.01;38.85;99664.41;5060609;28;20045;-62
2022/01/05 07:51:54;;;;;;;2.25;0.95;;;;;;;21.02;38.61;99649.34;5057959;28;20036;-62
2022/01/05 07:54:20;;;;;;;2.38;0.98;;;;;;;21.03;38.57;99658.91;5059030;28;20071;-63
2022/01/05 07:56:45;;;;;;;2.90;0.88;;;;;;;21.06;38.73;99672.50;5060341;28;20033;-63
2022/01/05 07:59:11;;;;;;;2.47;1.20;;;;;;;21.12;38.61;99662.88;5056487;28;20052;-63
2022/01/05 08:01:37;;;;;;;2.20;0.90;;;;;;;21.13;38.34;99653.91;5022521;28;20873;-62
2022/01/05 08:04:03;;;;;;;2.35;0.90;;;;;;;21.16;38.49;99650.84;5053278;28;20074;-63
2022/01/05 08:06:28;;;;;;;2.58;1.05;;;;;;;21.13;38.62;99653.91;5039728;28;20522;-63
2022/01/05 08:08:54;;;;;;;2.05;1.23;;;;;;;21.14;38.45;99652.88;5056452;28;20499;-63
2022/01/05 08:11:19;;;;;;;2.67;0.93;;;;;;;21.18;38.37;99672.59;5058136;28;20093;-62
2022/01/05 08:13:46;;;;;;;2.72;1.08;;;;;;;21.25;38.35;99664.66;5055101;28;20040;-63
2022/01/05 08:16:12;;;;;;;0.85;0.57;;;;;;;21.14;38.44;99650.25;5053127;28;20231;-63
2022/01/05 08:18:37;;;;;;;2.83;1.33;;;;;;;21.08;38.70;99674.94;5054983;28;20497;-62
2022/01/05 08:21:03;;;;;;;2.30;0.65;;;;;;;21.12;38.83;99674.28;5052830;28;20509;-63
2022/01/05 08:23:29;;;;;;;2.50;1.20;;;;;;;21.22;38.62;99655.28;5056755;28;20045;-63
2022/01/05 08:25:54;;;;;;;1.73;0.63;;;;;;;21.24;38.32;99632.06;5053689;28;20048;-64
2022/01/05 08:28:20;;;;;;;1.25;0.98;;;;;;;21.23;38.41;99634.91;5055304;28;20044;-63
2022/01/05 08:30:47;;;;;;;3.35;1.20;;;;;;;21.11;38.78;99645.38;5052956;28;20062;-62
2022/01/05 08:33:14;;;;;;;2.47;0.70;;;;;;;21.05;38.76;99640.97;5053802;28;20203;-63
2022/01/05 08:35:40;;;;;;;2.50;1.00;;;;;;;21.02;38.62;99650.16;5054107;28;20071;-63
2022/01/05 08:38:07;;;;;;;3.95;1.30;;;;;;;21.23;38.53;99667.50;5057798;28;20072;-63
2022/01/05 08:40:34;;;;;;;3.22;1.00;;;;;;;21.09;38.63;99668.63;5058825;28;20048;-63
2022/01/05 08:43:02;;;;;;;2.30;1.15;;;;;;;21.18;38.55;99683.19;5045094;28;20056;-63
2022/01/05 08:45:27;;;;;;;1.13;0.60;;;;;;;21.13;38.75;99675.91;5052020;28;20040;-63
2022/01/05 08:47:55;;;;;;;2.08;0.90;;;;;;;21.09;38.85;99673.91;5057724;28;20078;-63
2022/01/05 08:50:23;;;;;;;1.80;1.15;;;;;;;21.15;38.77;99680.97;5054424;28;20091;-63
2022/01/05 08:52:49;;;;;;;2.58;0.82;;;;;;;21.21;38.34;99687.28;5056536;28;20602;-63
2022/01/05 08:55:16;;;;;;;2.92;0.95;;;;;;;21.19;38.40;99689.31;5053532;28;20032;-63
2022/01/05 08:57:42;;;;;;;3.33;0.93;;;;;;;21.24;38.38;99692.97;5057015;28;20051;-63
2022/01/05 09:00:10;;;;;;;1.88;0.70;;;;;;;21.40;37.89;99704.84;5055686;28;20040;-63
2022/01/05 09:02:36;;;;;;;1.42;0.50;;;;;;;21.38;38.22;99701.63;5055613;28;20041;-63
2022/01/05 09:05:02;;;;;;;2.65;1.00;;;;;;;21.33;38.38;99714.69;5057371;28;20067;-63
2022/01/05 09:07:28;;;;;;;1.80;0.80;;;;;;;21.23;38.54;99715.16;5055933;28;20506;-62
2022/01/05 09:09:53;;;;;;;1.95;0.63;;;;;;;21.13;38.84;99709.50;5053062;28;20055;-63
2022/01/05 09:12:19;;;;;;;1.77;0.90;;;;;;;21.17;38.66;99718.63;5055783;28;20039;-64
2022/01/05 09:14:44;;;;;;;1.98;0.75;;;;;;;21.18;38.63;99725.53;5053428;28;20040;-63
2022/01/05 09:17:10;;;;;;;1.08;0.70;;;;;;;21.13;38.77;99731.50;5056206;28;20092;-63
2022/01/05 09:19:35;;;;;;;2.55;0.88;;;;;;;21.13;38.55;99734.13;5054834;28;20041;-63
2022/01/05 09:22:02;;;;;;;2.83;1.05;;;;;;;21.22;38.50;99747.94;5054451;28;20048;-63
2022/01/05 09:24:28;;;;;;;2.13;0.88;;;;;;;21.19;38.27;99747.56;5054244;28;20044;-63
2022/01/05 09:26:57;;;;;;;1.63;0.82;;;;;;;21.22;38.22;99757.72;5053092;28;20074;-63
2022/01/05 09:29:23;;;;;;;1.27;0.63;;;;;;;21.33;38.08;99762.34;5055651;28;20059;-63
2022/01/05 09:31:50;;;;;;;3.58;1.20;;;;;;;21.30;38.13;99760.94;5052248;28;20037;-63
2022/01/05 09:34:16;;;;;;;4.10;1.10;;;;;;;21.33;38.21;99768.44;5055805;28;20043;-63
2022/01/05 09:36:47;;;;;;;3.30;1.15;;;;;;;21.28;38.24;99759.53;5054629;28;20110;-63
2022/01/05 09:41:56;;;;;;;3.25;0.85;;;;;;;21.29;38.23;99777.03;5052703;28;20618;-63
2022/01/05 09:44:27;;;;;;;2.05;0.60;;;;;;;21.28;38.29;99768.28;5054797;28;20046;-63
2022/01/05 09:47:01;;;;;;;2.20;1.00;;;;;;;21.34;38.39;99782.50;5056048;28;20063;-63
2022/01/05 09:49:33;;;;;;;2.00;0.60;;;;;;;21.39;38.18;99787.97;5054324;28;20394;-63
2022/01/05 09:52:04;;;;;;;4.60;1.00;;;;;;;21.37;38.11;99795.34;5056670;28;20415;-63
2022/01/05 09:54:30;;;;;;;1.60;0.90;;;;;;;21.44;38.01;99790.78;5055466;28;20038;-63
2022/01/05 09:56:56;;;;;;;2.00;0.98;;;;;;;21.42;38.05;99804.25;5055173;28;20491;-63
2022/01/05 09:59:22;;;;;;;1.40;0.52;;;;;;;21.37;38.24;99804.09;5053138;28;20140;-63
2022/01/05 10:01:48;;;;;;;2.80;0.75;;;;;;;21.37;38.48;99813.88;5055722;28;20802;-63
2022/01/05 10:04:14;;;;;;;2.70;0.85;;;;;;;21.18;38.62;99810.25;5055278;28;20415;-63
2022/01/05 10:06:40;;;;;;;2.72;1.55;;;;;;;21.25;38.49;99813.72;5053067;28;20037;-62
2022/01/05 10:09:07;;;;;;;2.45;0.70;;;;;;;21.22;38.41;99843.25;5053375;28;20538;-62
2022/01/05 10:11:34;;;;;;;2.03;0.80;;;;;;;21.22;38.48;99831.84;5052563;28;20460;-63
2022/01/05 10:14:00;;;;;;;4.32;1.35;;;;;;;21.31;38.42;99835.88;5054835;28;20471;-63
2022/01/05 10:16:26;;;;;;;1.85;0.63;;;;;;;21.19;38.41;99841.03;5052432;28;20402;-63
2022/01/05 10:18:52;;;;;;;3.03;1.02;;;;;;;21.15;38.43;99836.34;5054851;28;20163;-62
2022/01/05 10:21:17;;;;;;;2.33;1.30;;;;;;;21.17;38.64;99858.13;5054959;28;20137;-63
2022/01/05 10:23:45;;;;;;;4.72;0.95;;;;;;;21.17;38.69;99855.47;5053872;28;20055;-63
2022/01/05 10:26:27;;;;;;;2.40;0.82;;;;;;;21.23;38.32;99857.31;5055389;28;20040;-63
2022/01/05 10:29:17;;;;;;;3.88;1.30;;;;;;;21.32;38.04;99872.75;5060305;28;20474;-63
2022/01/05 10:31:50;;;;;;;1.85;0.80;;;;;;;21.38;38.19;99863.97;5047884;28;20786;-63
2022/01/05 10:34:25;;;;;;;1.92;0.60;;;;;;;21.42;38.24;99874.94;5058309;28;20036;-63
2022/01/05 10:36:53;;;;;;;2.88;1.08;;;;;;;21.47;38.33;99871.66;5057807;28;20398;-63
2022/01/05 10:39:30;;;;;;;2.10;0.77;;;;;;;21.37;38.04;99866.84;5056811;28;20034;-62
2022/01/05 10:42:02;;;;;;;2.40;0.90;;;;;;;21.35;38.04;99880.25;5055153;28;20041;-62
2022/01/05 10:44:28;;;;;;;1.92;0.70;;;;;;;21.00;38.40;99845.38;5057366;28;20561;-62
2022/01/05 10:46:57;;;;;;;1.90;1.08;;;;;;;21.09;38.63;99870.59;5056037;28;20044;-63
2022/01/05 10:49:25;;;;;;;2.13;1.20;;;;;;;21.29;38.35;99894.38;5057145;28;20032;-63
2022/01/05 10:51:51;;;;;;;2.47;0.88;;;;;;;21.26;38.38;99896.63;5057426;28;20538;-62
2022/01/05 10:54:20;;;;;;;2.47;1.10;;;;;;;21.22;38.38;99909.44;5056558;28;20122;-63
2022/01/05 10:56:47;;;;;;;1.63;0.77;;;;;;;21.13;38.56;99895.63;5057476;28;20040;-62
2022/01/05 10:59:14;;;;;;;3.90;1.10;;;;;;;20.79;38.43;99843.03;5058254;28;20044;-62
2022/01/05 11:01:41;;;;;;;4.78;1.40;;;;;;;21.12;38.39;99909.88;5055257;28;20127;-62
2022/01/05 11:04:21;;;;;;;2.80;1.00;;;;;;;21.00;38.70;99916.84;5056581;28;20071;-62
2022/01/05 11:07:02;;;;;;;;;;;;;;;21.11;38.53;99918.03;5056151;28;20211;-62
2022/01/05 11:09:28;;;;;;;3.65;1.50;;;;;;;21.12;38.37;99917.00;5055536;28;19954;-62
2022/01/05 11:11:54;;;;;;;2.92;1.42;;;;;;;21.13;38.46;99919.44;5059150;28;20068;-63
2022/01/05 11:14:31;;;;;;;3.92;1.00;;;;;;;21.00;38.55;99918.69;5055133;28;22939;-62
2022/01/05 11:16:59;;;;;;;2.92;1.00;;;;;;;21.08;38.48;99935.16;5056229;28;20036;-62
2022/01/05 11:19:36;;;;;;;4.75;1.38;;;;;;;21.10;38.46;99933.13;5056223;28;20041;-63
2022/01/05 11:22:17;;;;;;;2.22;1.10;;;;;;;21.07;38.57;99927.44;5055175;28;20051;-62
2022/01/05 11:24:53;;;;;;;3.33;1.20;;;;;;;21.20;38.30;99937.16;5043890;28;20079;-62
2022/01/05 11:27:25;;;;;;;3.60;0.98;;;;;;;21.24;38.45;99941.00;5059259;28;20068;-62
2022/01/05 11:29:51;;;;;;;3.00;1.30;;;;;;;21.20;38.52;99963.63;5063131;28;20044;-63
2022/01/05 11:32:20;;;;;;;4.20;1.10;;;;;;;21.30;38.33;99956.88;5041411;28;20032;-63
2022/01/05 11:34:50;;;;;;;1.92;1.00;;;;;;;21.27;38.32;99954.66;5059353;28;20051;-63
2022/01/05 11:37:17;;;;;;;2.53;1.35;;;;;;;21.29;38.23;99939.38;5059294;28;20674;-63